sensor_id;sensor_type;location;lat;lon;timestamp;pressure;altitude;pressure_sealevel;temperature;humidity
4022;BME280;2025;48.260;16.432;2022-07-23T00:00:29;99664.22;;;22.57;100.00
4022;BME280;2025;48.260;16.432;2022-07-23T00:02:58;99672.28;;;22.56;100.00
4022;BME280;2025;48.260;16.432;2022-07-23T00:05:25;99667.81;;;22.56;100.00
4022;BME280;2025;48.260;16.432;2022-07-23T00:07:52;99663.56;;;22.51;100.00
4022;BME280;2025;48.260;16.432;2022-07-23T00:10:19;99663.63;;;22.49;100.00
4022;BME280;2025;48.260;16.432;2022-07-23T00:12:46;99663.63;;;22.49;100.00
4022;BME280;2025;48.260;16.432;2022-07-23T00:15:13;99669.03;;;22.48;100.00
4022;BME280;2025;48.260;16.432;2022-07-23T00:17:40;99670.91;;;22.46;100.00
4022;BME280;2025;48.260;16.432;2022-07-23T00:20:09;99666.44;;;22.46;100.00
4022;BME280;2025;48.260;16.432;2022-07-23T00:22:36;99661.03;;;22.48;100.00
4022;BME280;2025;48.260;16.432;2022-07-23T00:25:03;99660.16;;;22.47;100.00
4022;BME280;2025;48.260;16.432;2022-07-23T00:27:30;99666.31;;;22.49;100.00
4022;BME280;2025;48.260;16.432;2022-07-23T00:29:57;99671.84;;;22.45;100.00
4022;BME280;2025;48.260;16.432;2022-07-23T00:32:24;99669.41;;;22.38;100.00
4022;BME280;2025;48.260;16.432;2022-07-23T00:34:51;99672.09;;;22.38;100.00
4022;BME280;2025;48.260;16.432;2022-07-23T00:37:19;99670.28;;;22.39;100.00
4022;BME280;2025;48.260;16.432;2022-07-23T00:39:46;99673.84;;;22.39;100.00
4022;BME280;2025;48.260;16.432;2022-07-23T00:42:13;99679.22;;;22.38;100.00
4022;BME280;2025;48.260;16.432;2022-07-23T00:44:40;99671.28;;;22.36;100.00
4022;BME280;2025;48.260;16.432;2022-07-23T00:47:06;99673.16;;;22.34;100.00
4022;BME280;2025;48.260;16.432;2022-07-23T00:49:33;99676.75;;;22.33;100.00
4022;BME280;2025;48.260;16.432;2022-07-23T00:52:01;99675.94;;;22.31;100.00
4022;BME280;2025;48.260;16.432;2022-07-23T00:54:30;99680.53;;;22.28;100.00
4022;BME280;2025;48.260;16.432;2022-07-23T00:56:57;99679.72;;;22.26;100.00
4022;BME280;2025;48.260;16.432;2022-07-23T00:59:24;99674.53;;;22.23;100.00
4022;BME280;2025;48.260;16.432;2022-07-23T01:01:51;99678.06;;;22.23;100.00
4022;BME280;2025;48.260;16.432;2022-07-23T01:04:18;99675.50;;;22.20;100.00
4022;BME280;2025;48.260;16.432;2022-07-23T01:06:45;99674.69;;;22.18;100.00
4022;BME280;2025;48.260;16.432;2022-07-23T01:09:12;99664.16;;;22.15;100.00
4022;BME280;2025;48.260;16.432;2022-07-23T01:11:41;99653.47;;;22.15;100.00
4022;BME280;2025;48.260;16.432;2022-07-23T01:14:10;99652.59;;;22.15;100.00
4022;BME280;2025;48.260;16.432;2022-07-23T01:16:38;99652.78;;;22.10;100.00
4022;BME280;2025;48.260;16.432;2022-07-23T01:19:05;99646.72;;;22.06;100.00
4022;BME280;2025;48.260;16.432;2022-07-23T01:21:37;99657.38;;;22.06;100.00
4022;BME280;2025;48.260;16.432;2022-07-23T01:24:07;99660.97;;;22.05;100.00
4022;BME280;2025;48.260;16.432;2022-07-23T01:26:34;99657.53;;;22.02;100.00
4022;BME280;2025;48.260;16.432;2022-07-23T01:29:02;99657.72;;;21.97;100.00
4022;BME280;2025;48.260;16.432;2022-07-23T01:31:29;99657.84;;;21.94;100.00
4022;BME280;2025;48.260;16.432;2022-07-23T01:33:56;99669.25;;;21.98;100.00
4022;BME280;2025;48.260;16.432;2022-07-23T01:36:23;99674.31;;;22.05;100.00
4022;BME280;2025;48.260;16.432;2022-07-23T01:38:50;99682.16;;;22.10;100.00
4022;BME280;2025;48.260;16.432;2022-07-23T01:41:18;99698.66;;;22.20;100.00
4022;BME280;2025;48.260;16.432;2022-07-23T01:43:45;99713.38;;;22.52;100.00
4022;BME280;2025;48.260;16.432;2022-07-23T01:46:12;99717.00;;;22.94;100.00
4022;BME280;2025;48.260;16.432;2022-07-23T01:48:40;99716.06;;;23.16;100.00
4022;BME280;2025;48.260;16.432;2022-07-23T01:51:07;99714.97;;;23.40;100.00
4022;BME280;2025;48.260;16.432;2022-07-23T01:53:34;99712.03;;;23.46;100.00
4022;BME280;2025;48.260;16.432;2022-07-23T01:56:02;99713.25;;;23.39;100.00
4022;BME280;2025;48.260;16.432;2022-07-23T01:58:30;99708.50;;;23.66;100.00
4022;BME280;2025;48.260;16.432;2022-07-23T02:00:58;99700.34;;;23.88;100.00
4022;BME280;2025;48.260;16.432;2022-07-23T02:03:25;99693.81;;;23.75;100.00
4022;BME280;2025;48.260;16.432;2022-07-23T02:05:52;99698.38;;;23.52;100.00
4022;BME280;2025;48.260;16.432;2022-07-23T02:08:19;99703.56;;;23.36;100.00
4022;BME280;2025;48.260;16.432;2022-07-23T02:10:46;99692.66;;;23.41;100.00
4022;BME280;2025;48.260;16.432;2022-07-23T02:13:14;99672.44;;;23.75;100.00
4022;BME280;2025;48.260;16.432;2022-07-23T02:15:42;99665.25;;;23.94;100.00
4022;BME280;2025;48.260;16.432;2022-07-23T02:18:09;99665.47;;;24.27;100.00
4022;BME280;2025;48.260;16.432;2022-07-23T02:20:36;99646.81;;;24.44;100.00
4022;BME280;2025;48.260;16.432;2022-07-23T02:23:04;99636.25;;;24.41;100.00
4022;BME280;2025;48.260;16.432;2022-07-23T02:25:32;99626.72;;;24.36;100.00
4022;BME280;2025;48.260;16.432;2022-07-23T02:27:59;99616.00;;;24.36;100.00
4022;BME280;2025;48.260;16.432;2022-07-23T02:30:26;99601.81;;;24.34;100.00
4022;BME280;2025;48.260;16.432;2022-07-23T02:32:54;99582.69;;;24.41;100.00
4022;BME280;2025;48.260;16.432;2022-07-23T02:35:21;99572.91;;;24.40;100.00
4022;BME280;2025;48.260;16.432;2022-07-23T02:37:49;99582.91;;;24.37;100.00
4022;BME280;2025;48.260;16.432;2022-07-23T02:40:16;99595.69;;;24.32;100.00
4022;BME280;2025;48.260;16.432;2022-07-23T02:42:43;99598.50;;;24.28;100.00
4022;BME280;2025;48.260;16.432;2022-07-23T02:45:10;99592.53;;;24.41;100.00
4022;BME280;2025;48.260;16.432;2022-07-23T02:47:37;99577.34;;;24.41;100.00
4022;BME280;2025;48.260;16.432;2022-07-23T02:50:07;99564.66;;;24.45;100.00
4022;BME280;2025;48.260;16.432;2022-07-23T02:52:34;99577.09;;;24.46;100.00
4022;BME280;2025;48.260;16.432;2022-07-23T02:55:00;99604.81;;;24.45;100.00
4022;BME280;2025;48.260;16.432;2022-07-23T02:57:27;99615.13;;;24.35;100.00
4022;BME280;2025;48.260;16.432;2022-07-23T02:59:54;99601.97;;;24.30;100.00
4022;BME280;2025;48.260;16.432;2022-07-23T03:02:21;99601.22;;;24.27;100.00
4022;BME280;2025;48.260;16.432;2022-07-23T03:04:49;99604.69;;;24.10;100.00
4022;BME280;2025;48.260;16.432;2022-07-23T03:07:18;99589.78;;;24.23;100.00
4022;BME280;2025;48.260;16.432;2022-07-23T03:09:45;99585.91;;;24.30;100.00
4022;BME280;2025;48.260;16.432;2022-07-23T03:12:12;99609.59;;;24.19;100.00
4022;BME280;2025;48.260;16.432;2022-07-23T03:14:39;99608.25;;;24.11;100.00
4022;BME280;2025;48.260;16.432;2022-07-23T03:17:06;99621.38;;;23.98;100.00
4022;BME280;2025;48.260;16.432;2022-07-23T03:19:33;99622.25;;;23.80;100.00
4022;BME280;2025;48.260;16.432;2022-07-23T03:22:00;99634.09;;;23.74;100.00
4022;BME280;2025;48.260;16.432;2022-07-23T03:24:29;99649.50;;;23.69;100.00
4022;BME280;2025;48.260;16.432;2022-07-23T03:27:09;99656.94;;;23.62;100.00
4022;BME280;2025;48.260;16.432;2022-07-23T03:29:36;99640.91;;;23.62;100.00
4022;BME280;2025;48.260;16.432;2022-07-23T03:32:04;99646.25;;;23.62;100.00
4022;BME280;2025;48.260;16.432;2022-07-23T03:34:31;99637.50;;;23.59;100.00
4022;BME280;2025;48.260;16.432;2022-07-23T03:36:58;99644.28;;;23.85;100.00
4022;BME280;2025;48.260;16.432;2022-07-23T03:39:25;99653.59;;;24.14;100.00
4022;BME280;2025;48.260;16.432;2022-07-23T03:41:53;99653.59;;;24.14;100.00
4022;BME280;2025;48.260;16.432;2022-07-23T03:44:20;99661.34;;;24.01;100.00
4022;BME280;2025;48.260;16.432;2022-07-23T03:46:48;99640.69;;;23.86;100.00
4022;BME280;2025;48.260;16.432;2022-07-23T03:49:16;99655.44;;;23.76;100.00
4022;BME280;2025;48.260;16.432;2022-07-23T03:51:43;99655.28;;;23.60;100.00
4022;BME280;2025;48.260;16.432;2022-07-23T03:54:10;99651.88;;;23.56;100.00
4022;BME280;2025;48.260;16.432;2022-07-23T03:56:37;99664.50;;;23.53;100.00
4022;BME280;2025;48.260;16.432;2022-07-23T03:59:05;99664.13;;;23.42;100.00
4022;BME280;2025;48.260;16.432;2022-07-23T04:01:32;99668.88;;;23.35;100.00
4022;BME280;2025;48.260;16.432;2022-07-23T04:03:59;99664.47;;;23.34;100.00
4022;BME280;2025;48.260;16.432;2022-07-23T04:06:26;99678.84;;;23.31;100.00
4022;BME280;2025;48.260;16.432;2022-07-23T04:08:53;99673.84;;;23.24;100.00
4022;BME280;2025;48.260;16.432;2022-07-23T04:11:20;99686.53;;;23.19;100.00
4022;BME280;2025;48.260;16.432;2022-07-23T04:13:47;99687.81;;;23.10;100.00
4022;BME280;2025;48.260;16.432;2022-07-23T04:16:16;99688.41;;;23.17;100.00
4022;BME280;2025;48.260;16.432;2022-07-23T04:18:43;99683.13;;;23.15;100.00
4022;BME280;2025;48.260;16.432;2022-07-23T04:21:10;99685.38;;;23.24;100.00
4022;BME280;2025;48.260;16.432;2022-07-23T04:23:37;99684.50;;;23.44;100.00
4022;BME280;2025;48.260;16.432;2022-07-23T04:26:04;99679.88;;;23.48;100.00
4022;BME280;2025;48.260;16.432;2022-07-23T04:28:31;99682.25;;;23.55;100.00
4022;BME280;2025;48.260;16.432;2022-07-23T04:30:58;99677.75;;;23.56;100.00
4022;BME280;2025;48.260;16.432;2022-07-23T04:33:27;99682.81;;;23.62;100.00
4022;BME280;2025;48.260;16.432;2022-07-23T04:35:54;99684.22;;;23.71;100.00
4022;BME280;2025;48.260;16.432;2022-07-23T04:38:21;99688.03;;;23.84;100.00
4022;BME280;2025;48.260;16.432;2022-07-23T04:40:48;99685.16;;;23.88;100.00
4022;BME280;2025;48.260;16.432;2022-07-23T04:43:15;99684.72;;;23.97;100.00
4022;BME280;2025;48.260;16.432;2022-07-23T04:45:42;99693.97;;;24.09;100.00
4022;BME280;2025;48.260;16.432;2022-07-23T04:48:09;99700.41;;;24.24;100.00
4022;BME280;2025;48.260;16.432;2022-07-23T04:50:37;99693.34;;;24.42;100.00
4022;BME280;2025;48.260;16.432;2022-07-23T04:53:04;99681.88;;;24.57;100.00
4022;BME280;2025;48.260;16.432;2022-07-23T04:55:31;99688.75;;;24.62;100.00
4022;BME280;2025;48.260;16.432;2022-07-23T04:57:58;99680.94;;;24.58;100.00
4022;BME280;2025;48.260;16.432;2022-07-23T05:00:25;99683.47;;;24.61;100.00
4022;BME280;2025;48.260;16.432;2022-07-23T05:02:52;99686.28;;;24.58;100.00
4022;BME280;2025;48.260;16.432;2022-07-23T05:05:19;99687.94;;;24.60;100.00
4022;BME280;2025;48.260;16.432;2022-07-23T05:07:47;99685.56;;;24.54;100.00
4022;BME280;2025;48.260;16.432;2022-07-23T05:10:14;99679.81;;;24.45;100.00
4022;BME280;2025;48.260;16.432;2022-07-23T05:12:41;99687.50;;;24.34;100.00
4022;BME280;2025;48.260;16.432;2022-07-23T05:15:08;99686.06;;;24.25;100.00
4022;BME280;2025;48.260;16.432;2022-07-23T05:17:35;99690.84;;;24.18;100.00
4022;BME280;2025;48.260;16.432;2022-07-23T05:20:02;99686.38;;;24.19;100.00
4022;BME280;2025;48.260;16.432;2022-07-23T05:22:29;99681.53;;;24.27;100.00
4022;BME280;2025;48.260;16.432;2022-07-23T05:24:57;99679.97;;;24.42;100.00
4022;BME280;2025;48.260;16.432;2022-07-23T05:27:24;99692.34;;;24.61;100.00
4022;BME280;2025;48.260;16.432;2022-07-23T05:29:51;99694.50;;;24.72;100.00
4022;BME280;2025;48.260;16.432;2022-07-23T05:32:18;99695.16;;;24.94;100.00
4022;BME280;2025;48.260;16.432;2022-07-23T05:34:45;99700.38;;;25.15;100.00
4022;BME280;2025;48.260;16.432;2022-07-23T05:37:12;99695.63;;;25.37;100.00
4022;BME280;2025;48.260;16.432;2022-07-23T05:39:39;99696.44;;;25.55;100.00
4022;BME280;2025;48.260;16.432;2022-07-23T05:42:07;99694.44;;;25.76;100.00
4022;BME280;2025;48.260;16.432;2022-07-23T05:44:34;99691.88;;;25.90;100.00
4022;BME280;2025;48.260;16.432;2022-07-23T05:47:01;99693.41;;;26.11;100.00
4022;BME280;2025;48.260;16.432;2022-07-23T05:49:28;99698.75;;;26.27;100.00
4022;BME280;2025;48.260;16.432;2022-07-23T05:51:55;99707.53;;;26.46;100.00
4022;BME280;2025;48.260;16.432;2022-07-23T05:54:22;99703.38;;;26.57;100.00
4022;BME280;2025;48.260;16.432;2022-07-23T05:56:49;99709.25;;;26.63;100.00
4022;BME280;2025;48.260;16.432;2022-07-23T05:59:19;99713.66;;;26.64;100.00
4022;BME280;2025;48.260;16.432;2022-07-23T06:01:46;99713.94;;;26.60;100.00
4022;BME280;2025;48.260;16.432;2022-07-23T06:04:13;99715.84;;;26.58;100.00
4022;BME280;2025;48.260;16.432;2022-07-23T06:06:40;99724.75;;;26.74;100.00
4022;BME280;2025;48.260;16.432;2022-07-23T06:09:06;99727.22;;;26.93;100.00
4022;BME280;2025;48.260;16.432;2022-07-23T06:11:33;99732.03;;;27.17;100.00
4022;BME280;2025;48.260;16.432;2022-07-23T06:14:00;99719.47;;;27.32;100.00
4022;BME280;2025;48.260;16.432;2022-07-23T06:16:29;99720.66;;;27.42;100.00
4022;BME280;2025;48.260;16.432;2022-07-23T06:18:56;99706.72;;;27.50;100.00
4022;BME280;2025;48.260;16.432;2022-07-23T06:21:23;99708.56;;;27.49;100.00
4022;BME280;2025;48.260;16.432;2022-07-23T06:23:50;99706.63;;;27.37;100.00
4022;BME280;2025;48.260;16.432;2022-07-23T06:26:17;99712.00;;;27.37;100.00
4022;BME280;2025;48.260;16.432;2022-07-23T06:28:44;99709.69;;;27.45;100.00
4022;BME280;2025;48.260;16.432;2022-07-23T06:31:11;99704.53;;;27.57;100.00
4022;BME280;2025;48.260;16.432;2022-07-23T06:33:39;99711.91;;;27.83;100.00
4022;BME280;2025;48.260;16.432;2022-07-23T06:36:06;99711.50;;;28.03;100.00
4022;BME280;2025;48.260;16.432;2022-07-23T06:38:33;99711.00;;;28.25;100.00
4022;BME280;2025;48.260;16.432;2022-07-23T06:41:00;99709.34;;;28.37;100.00
4022;BME280;2025;48.260;16.432;2022-07-23T06:43:28;99712.75;;;28.53;100.00
4022;BME280;2025;48.260;16.432;2022-07-23T06:45:56;99711.19;;;28.63;100.00
4022;BME280;2025;48.260;16.432;2022-07-23T06:48:23;99709.13;;;28.67;100.00
4022;BME280;2025;48.260;16.432;2022-07-23T06:50:51;99705.94;;;28.74;100.00
4022;BME280;2025;48.260;16.432;2022-07-23T06:53:18;99697.94;;;28.73;100.00
4022;BME280;2025;48.260;16.432;2022-07-23T06:55:45;99701.38;;;28.89;100.00
4022;BME280;2025;48.260;16.432;2022-07-23T06:58:12;99689.53;;;28.78;100.00
4022;BME280;2025;48.260;16.432;2022-07-23T07:00:40;99685.50;;;28.85;100.00
4022;BME280;2025;48.260;16.432;2022-07-23T07:03:06;99680.25;;;28.96;100.00
4022;BME280;2025;48.260;16.432;2022-07-23T07:05:33;99703.88;;;29.05;100.00
4022;BME280;2025;48.260;16.432;2022-07-23T07:08:02;99698.81;;;29.13;100.00
4022;BME280;2025;48.260;16.432;2022-07-23T07:10:29;99694.41;;;29.25;100.00
4022;BME280;2025;48.260;16.432;2022-07-23T07:12:56;99694.78;;;29.46;100.00
4022;BME280;2025;48.260;16.432;2022-07-23T07:15:23;99698.38;;;29.59;100.00
4022;BME280;2025;48.260;16.432;2022-07-23T07:17:50;99694.72;;;29.60;100.00
4022;BME280;2025;48.260;16.432;2022-07-23T07:20:17;99698.25;;;29.73;97.72
4022;BME280;2025;48.260;16.432;2022-07-23T07:22:44;99701.81;;;29.86;93.42
4022;BME280;2025;48.260;16.432;2022-07-23T07:25:12;99695.31;;;29.89;84.43
4022;BME280;2025;48.260;16.432;2022-07-23T07:27:39;99693.47;;;29.89;83.11
4022;BME280;2025;48.260;16.432;2022-07-23T07:30:07;99689.81;;;29.90;82.80
4022;BME280;2025;48.260;16.432;2022-07-23T07:32:34;99696.28;;;30.00;84.04
4022;BME280;2025;48.260;16.432;2022-07-23T07:35:02;99700.94;;;30.11;85.35
4022;BME280;2025;48.260;16.432;2022-07-23T07:37:29;99699.09;;;30.12;83.17
4022;BME280;2025;48.260;16.432;2022-07-23T07:39:56;99693.88;;;30.21;85.86
4022;BME280;2025;48.260;16.432;2022-07-23T07:42:25;99692.56;;;30.27;86.62
4022;BME280;2025;48.260;16.432;2022-07-23T07:44:52;99684.97;;;30.32;85.38
4022;BME280;2025;48.260;16.432;2022-07-23T07:47:19;99687.22;;;30.38;84.67
4022;BME280;2025;48.260;16.432;2022-07-23T07:49:45;99692.22;;;30.55;85.51
4022;BME280;2025;48.260;16.432;2022-07-23T07:52:12;99699.16;;;30.59;76.88
4022;BME280;2025;48.260;16.432;2022-07-23T07:54:39;99701.78;;;30.48;74.83
4022;BME280;2025;48.260;16.432;2022-07-23T07:57:06;99706.22;;;30.49;78.23
4022;BME280;2025;48.260;16.432;2022-07-23T07:59:35;99706.31;;;30.48;74.37
4022;BME280;2025;48.260;16.432;2022-07-23T08:02:01;99706.56;;;30.45;78.23
4022;BME280;2025;48.260;16.432;2022-07-23T08:04:28;99713.97;;;30.54;78.13
4022;BME280;2025;48.260;16.432;2022-07-23T08:06:55;99709.19;;;30.57;76.54
4022;BME280;2025;48.260;16.432;2022-07-23T08:09:22;99712.28;;;30.77;77.44
4022;BME280;2025;48.260;16.432;2022-07-23T08:11:49;99701.63;;;30.86;80.27
4022;BME280;2025;48.260;16.432;2022-07-23T08:14:17;99714.22;;;30.99;73.46
4022;BME280;2025;48.260;16.432;2022-07-23T08:16:45;99708.22;;;31.06;77.82
4022;BME280;2025;48.260;16.432;2022-07-23T08:19:12;99714.34;;;30.97;77.11
4022;BME280;2025;48.260;16.432;2022-07-23T08:21:39;99711.41;;;31.00;80.28
4022;BME280;2025;48.260;16.432;2022-07-23T08:24:06;99713.34;;;30.98;76.29
4022;BME280;2025;48.260;16.432;2022-07-23T08:26:33;99717.31;;;31.05;72.90
4022;BME280;2025;48.260;16.432;2022-07-23T08:29:00;99712.59;;;30.96;73.57
4022;BME280;2025;48.260;16.432;2022-07-23T08:31:27;99721.28;;;31.12;69.77
4022;BME280;2025;48.260;16.432;2022-07-23T08:33:56;99725.19;;;31.08;74.29
4022;BME280;2025;48.260;16.432;2022-07-23T08:36:23;99718.41;;;31.03;74.04
4022;BME280;2025;48.260;16.432;2022-07-23T08:38:53;99712.03;;;31.27;75.41
4022;BME280;2025;48.260;16.432;2022-07-23T08:41:20;99710.88;;;31.19;73.70
4022;BME280;2025;48.260;16.432;2022-07-23T08:43:47;99722.88;;;31.27;72.92
4022;BME280;2025;48.260;16.432;2022-07-23T08:46:14;99716.84;;;31.11;72.01
4022;BME280;2025;48.260;16.432;2022-07-23T08:48:43;99716.53;;;31.16;71.76
4022;BME280;2025;48.260;16.432;2022-07-23T08:51:15;99717.06;;;31.08;71.41
4022;BME280;2025;48.260;16.432;2022-07-23T08:53:42;99711.00;;;31.17;78.62
4022;BME280;2025;48.260;16.432;2022-07-23T08:56:09;99704.72;;;31.17;71.91
4022;BME280;2025;48.260;16.432;2022-07-23T08:58:36;99712.81;;;31.41;79.39
4022;BME280;2025;48.260;16.432;2022-07-23T09:01:04;99708.03;;;31.55;69.64
4022;BME280;2025;48.260;16.432;2022-07-23T09:03:32;99708.31;;;31.75;72.84
4022;BME280;2025;48.260;16.432;2022-07-23T09:06:00;99706.56;;;31.63;70.77
4022;BME280;2025;48.260;16.432;2022-07-23T09:08:35;99709.03;;;31.66;67.68
4022;BME280;2025;48.260;16.432;2022-07-23T09:11:04;99700.03;;;31.65;68.31
4022;BME280;2025;48.260;16.432;2022-07-23T09:13:34;99710.66;;;31.79;67.46
4022;BME280;2025;48.260;16.432;2022-07-23T09:16:05;99708.53;;;31.61;67.42
4022;BME280;2025;48.260;16.432;2022-07-23T09:18:38;99722.25;;;31.24;72.69
4022;BME280;2025;48.260;16.432;2022-07-23T09:21:16;99711.16;;;31.27;71.30
4022;BME280;2025;48.260;16.432;2022-07-23T09:23:47;99719.22;;;31.51;69.59
4022;BME280;2025;48.260;16.432;2022-07-23T09:26:33;99707.41;;;31.63;67.53
4022;BME280;2025;48.260;16.432;2022-07-23T09:29:06;99709.91;;;31.77;68.63
4022;BME280;2025;48.260;16.432;2022-07-23T09:31:41;99701.31;;;31.95;68.00
4022;BME280;2025;48.260;16.432;2022-07-23T09:34:11;99697.84;;;31.93;67.52
4022;BME280;2025;48.260;16.432;2022-07-23T09:36:39;99700.06;;;32.10;68.21
4022;BME280;2025;48.260;16.432;2022-07-23T09:39:08;99692.31;;;32.05;67.00
4022;BME280;2025;48.260;16.432;2022-07-23T09:41:37;99692.81;;;31.77;67.60
4022;BME280;2025;48.260;16.432;2022-07-23T09:44:13;99680.09;;;31.66;68.57
4022;BME280;2025;48.260;16.432;2022-07-23T09:46:41;99678.53;;;31.75;73.76
4022;BME280;2025;48.260;16.432;2022-07-23T09:49:26;99684.31;;;31.93;75.79
4022;BME280;2025;48.260;16.432;2022-07-23T09:51:56;99677.41;;;32.00;67.82
4022;BME280;2025;48.260;16.432;2022-07-23T09:54:30;99684.75;;;32.20;66.69
4022;BME280;2025;48.260;16.432;2022-07-23T09:57:00;99681.31;;;32.18;64.03
4022;BME280;2025;48.260;16.432;2022-07-23T09:59:29;99684.88;;;32.41;65.15
4022;BME280;2025;48.260;16.432;2022-07-23T10:01:57;99681.22;;;32.63;67.09
4022;BME280;2025;48.260;16.432;2022-07-23T10:04:25;99679.78;;;32.91;62.73
4022;BME280;2025;48.260;16.432;2022-07-23T10:06:54;99679.16;;;32.98;59.13
4022;BME280;2025;48.260;16.432;2022-07-23T10:09:24;99666.66;;;33.48;58.46
4022;BME280;2025;48.260;16.432;2022-07-23T10:11:55;99664.34;;;33.44;64.44
4022;BME280;2025;48.260;16.432;2022-07-23T10:14:27;99662.72;;;33.83;62.69
4022;BME280;2025;48.260;16.432;2022-07-23T10:16:57;99666.72;;;33.89;56.14
4022;BME280;2025;48.260;16.432;2022-07-23T10:19:25;99662.91;;;33.70;54.74
4022;BME280;2025;48.260;16.432;2022-07-23T10:21:54;99664.09;;;33.77;53.68
4022;BME280;2025;48.260;16.432;2022-07-23T10:24:30;99665.28;;;33.85;58.05
4022;BME280;2025;48.260;16.432;2022-07-23T10:27:12;99666.25;;;34.24;56.43
4022;BME280;2025;48.260;16.432;2022-07-23T10:29:49;99669.25;;;34.21;52.26
4022;BME280;2025;48.260;16.432;2022-07-23T10:32:31;99665.63;;;34.01;53.67
4022;BME280;2025;48.260;16.432;2022-07-23T10:35:09;99664.47;;;33.94;54.55
4022;BME280;2025;48.260;16.432;2022-07-23T10:37:41;99661.28;;;33.89;52.71
4022;BME280;2025;48.260;16.432;2022-07-23T10:40:10;99667.63;;;33.99;53.19
4022;BME280;2025;48.260;16.432;2022-07-23T10:42:39;99665.63;;;34.01;55.33
4022;BME280;2025;48.260;16.432;2022-07-23T10:45:24;99662.72;;;33.83;54.98
4022;BME280;2025;48.260;16.432;2022-07-23T10:47:52;99664.03;;;33.68;56.44
4022;BME280;2025;48.260;16.432;2022-07-23T10:50:23;99672.06;;;34.00;56.40
4022;BME280;2025;48.260;16.432;2022-07-23T10:53:11;99666.75;;;34.38;52.87
4022;BME280;2025;48.260;16.432;2022-07-23T10:55:50;99653.66;;;34.82;54.42
4022;BME280;2025;48.260;16.432;2022-07-23T10:58:20;99655.63;;;34.70;51.70
4022;BME280;2025;48.260;16.432;2022-07-23T11:00:48;99646.31;;;34.73;50.15
4022;BME280;2025;48.260;16.432;2022-07-23T11:03:29;99649.03;;;35.21;53.16
4022;BME280;2025;48.260;16.432;2022-07-23T11:05:57;99648.44;;;35.37;54.12
4022;BME280;2025;48.260;16.432;2022-07-23T11:08:24;99651.22;;;35.64;50.97
4022;BME280;2025;48.260;16.432;2022-07-23T11:10:53;99650.31;;;35.36;52.99
4022;BME280;2025;48.260;16.432;2022-07-23T11:13:45;99654.75;;;35.84;48.01
4022;BME280;2025;48.260;16.432;2022-07-23T11:16:14;99662.06;;;35.84;50.85
4022;BME280;2025;48.260;16.432;2022-07-23T11:19:05;99653.47;;;35.32;55.97
4022;BME280;2025;48.260;16.432;2022-07-23T11:21:49;99647.44;;;35.28;53.63
4022;BME280;2025;48.260;16.432;2022-07-23T11:24:21;99649.88;;;34.45;59.66
4022;BME280;2025;48.260;16.432;2022-07-23T11:27:03;99639.78;;;34.16;63.28
4022;BME280;2025;48.260;16.432;2022-07-23T11:29:48;99630.78;;;34.25;64.18
4022;BME280;2025;48.260;16.432;2022-07-23T11:32:29;99635.50;;;34.23;62.62
4022;BME280;2025;48.260;16.432;2022-07-23T11:34:59;99633.28;;;33.98;71.26
4022;BME280;2025;48.260;16.432;2022-07-23T11:37:35;99628.47;;;33.80;66.76
4022;BME280;2025;48.260;16.432;2022-07-23T11:40:06;99636.16;;;34.06;66.49
4022;BME280;2025;48.260;16.432;2022-07-23T11:42:34;99634.72;;;34.02;63.50
4022;BME280;2025;48.260;16.432;2022-07-23T11:45:05;99625.44;;;34.14;63.43
4022;BME280;2025;48.260;16.432;2022-07-23T11:47:33;99614.50;;;34.54;63.31
4022;BME280;2025;48.260;16.432;2022-07-23T11:50:03;99607.06;;;35.14;66.55
4022;BME280;2025;48.260;16.432;2022-07-23T11:52:32;99607.88;;;35.24;58.89
4022;BME280;2025;48.260;16.432;2022-07-23T11:55:02;99614.50;;;34.54;60.76
4022;BME280;2025;48.260;16.432;2022-07-23T11:57:30;99620.47;;;34.19;64.45
4022;BME280;2025;48.260;16.432;2022-07-23T12:00:05;99619.94;;;33.85;66.23
4022;BME280;2025;48.260;16.432;2022-07-23T12:02:34;99613.50;;;33.86;67.53
4022;BME280;2025;48.260;16.432;2022-07-23T12:05:01;99616.50;;;33.83;69.14
4022;BME280;2025;48.260;16.432;2022-07-23T12:07:30;99621.13;;;33.62;76.79
4022;BME280;2025;48.260;16.432;2022-07-23T12:09:59;99619.34;;;33.51;70.33
4022;BME280;2025;48.260;16.432;2022-07-23T12:12:27;99629.03;;;33.74;69.50
4022;BME280;2025;48.260;16.432;2022-07-23T12:14:56;99619.94;;;33.55;72.37
4022;BME280;2025;48.260;16.432;2022-07-23T12:17:31;99616.91;;;33.48;68.97
4022;BME280;2025;48.260;16.432;2022-07-23T12:19:59;99618.81;;;33.88;72.80
4022;BME280;2025;48.260;16.432;2022-07-23T12:22:34;99617.25;;;33.95;71.88
4022;BME280;2025;48.260;16.432;2022-07-23T12:25:04;99618.88;;;33.76;69.44
4022;BME280;2025;48.260;16.432;2022-07-23T12:27:32;99618.13;;;33.65;68.91
4022;BME280;2025;48.260;16.432;2022-07-23T12:29:59;99615.06;;;33.48;72.34
4022;BME280;2025;48.260;16.432;2022-07-23T12:32:45;99618.13;;;33.34;66.89
4022;BME280;2025;48.260;16.432;2022-07-23T12:35:13;99614.63;;;33.02;68.09
4022;BME280;2025;48.260;16.432;2022-07-23T12:37:41;99606.63;;;33.00;68.82
4022;BME280;2025;48.260;16.432;2022-07-23T12:40:26;99616.75;;;32.98;69.35
4022;BME280;2025;48.260;16.432;2022-07-23T12:42:55;99605.16;;;32.96;70.00
4022;BME280;2025;48.260;16.432;2022-07-23T12:45:23;99607.91;;;32.85;67.31
4022;BME280;2025;48.260;16.432;2022-07-23T12:47:53;99614.63;;;32.70;66.37
4022;BME280;2025;48.260;16.432;2022-07-23T12:50:42;99619.38;;;32.57;69.34
4022;BME280;2025;48.260;16.432;2022-07-23T12:53:11;99621.38;;;32.43;76.88
4022;BME280;2025;48.260;16.432;2022-07-23T12:55:39;99621.31;;;32.22;72.03
4022;BME280;2025;48.260;16.432;2022-07-23T12:58:09;99623.66;;;32.16;67.93
4022;BME280;2025;48.260;16.432;2022-07-23T13:00:58;99619.41;;;31.91;72.01
4022;BME280;2025;48.260;16.432;2022-07-23T13:03:30;99622.25;;;31.78;72.03
4022;BME280;2025;48.260;16.432;2022-07-23T13:05:58;99626.94;;;31.76;71.53
4022;BME280;2025;48.260;16.432;2022-07-23T13:08:27;99627.31;;;31.72;72.73
4022;BME280;2025;48.260;16.432;2022-07-23T13:10:54;99630.00;;;31.72;71.83
4022;BME280;2025;48.260;16.432;2022-07-23T13:13:23;99640.22;;;31.79;71.36